sensor_id;sensor_type;location;lat;lon;timestamp;P1;durP1;ratioP1;P2;durP2;ratioP2
3121;SDS011;1571;52.524;14.104;2023-07-30T00:01:18;7.33;;;6.73;;
3121;SDS011;1571;52.524;14.104;2023-07-30T00:03:47;6.40;;;5.63;;
3121;SDS011;1571;52.524;14.104;2023-07-30T00:06:15;6.30;;;5.70;;
3121;SDS011;1571;52.524;14.104;2023-07-30T00:08:43;8.27;;;6.00;;
3121;SDS011;1571;52.524;14.104;2023-07-30T00:11:12;10.67;;;5.63;;
3121;SDS011;1571;52.524;14.104;2023-07-30T00:13:40;8.57;;;6.27;;
3121;SDS011;1571;52.524;14.104;2023-07-30T00:16:08;8.83;;;7.27;;
3121;SDS011;1571;52.524;14.104;2023-07-30T00:18:38;7.33;;;6.60;;
3121;SDS011;1571;52.524;14.104;2023-07-30T00:21:06;8.47;;;7.00;;
3121;SDS011;1571;52.524;14.104;2023-07-30T00:23:34;9.47;;;5.93;;
3121;SDS011;1571;52.524;14.104;2023-07-30T00:26:03;6.77;;;6.17;;
3121;SDS011;1571;52.524;14.104;2023-07-30T00:28:31;7.40;;;6.67;;
3121;SDS011;1571;52.524;14.104;2023-07-30T00:30:59;8.67;;;6.90;;
3121;SDS011;1571;52.524;14.104;2023-07-30T00:33:27;7.80;;;6.20;;
3121;SDS011;1571;52.524;14.104;2023-07-30T00:35:57;7.20;;;6.40;;
3121;SDS011;1571;52.524;14.104;2023-07-30T00:38:25;8.30;;;6.97;;
3121;SDS011;1571;52.524;14.104;2023-07-30T00:40:55;10.70;;;7.73;;
3121;SDS011;1571;52.524;14.104;2023-07-30T00:43:23;10.77;;;7.73;;
3121;SDS011;1571;52.524;14.104;2023-07-30T00:45:52;7.10;;;6.40;;
3121;SDS011;1571;52.524;14.104;2023-07-30T00:48:20;8.83;;;5.40;;
3121;SDS011;1571;52.524;14.104;2023-07-30T00:50:48;9.00;;;6.20;;
3121;SDS011;1571;52.524;14.104;2023-07-30T00:53:18;8.27;;;5.50;;
3121;SDS011;1571;52.524;14.104;2023-07-30T00:55:49;5.60;;;5.10;;
3121;SDS011;1571;52.524;14.104;2023-07-30T00:58:18;6.93;;;6.27;;
3121;SDS011;1571;52.524;14.104;2023-07-30T01:00:48;8.70;;;7.30;;
3121;SDS011;1571;52.524;14.104;2023-07-30T01:03:17;6.87;;;6.20;;
3121;SDS011;1571;52.524;14.104;2023-07-30T01:05:46;7.40;;;6.80;;
3121;SDS011;1571;52.524;14.104;2023-07-30T01:08:15;6.70;;;6.00;;
3121;SDS011;1571;52.524;14.104;2023-07-30T01:10:44;7.00;;;5.50;;
3121;SDS011;1571;52.524;14.104;2023-07-30T01:13:13;7.00;;;6.30;;
3121;SDS011;1571;52.524;14.104;2023-07-30T01:15:43;6.90;;;6.17;;
3121;SDS011;1571;52.524;14.104;2023-07-30T01:18:12;8.53;;;7.80;;
3121;SDS011;1571;52.524;14.104;2023-07-30T01:20:41;6.20;;;5.70;;
3121;SDS011;1571;52.524;14.104;2023-07-30T01:23:10;7.63;;;6.50;;
3121;SDS011;1571;52.524;14.104;2023-07-30T01:25:39;6.60;;;6.00;;
3121;SDS011;1571;52.524;14.104;2023-07-30T01:28:09;7.83;;;4.60;;
3121;SDS011;1571;52.524;14.104;2023-07-30T01:30:44;5.30;;;4.90;;
3121;SDS011;1571;52.524;14.104;2023-07-30T01:33:15;5.70;;;5.30;;
3121;SDS011;1571;52.524;14.104;2023-07-30T01:35:43;5.70;;;4.93;;
3121;SDS011;1571;52.524;14.104;2023-07-30T01:38:13;6.77;;;6.07;;
3121;SDS011;1571;52.524;14.104;2023-07-30T01:40:42;6.33;;;5.27;;
3121;SDS011;1571;52.524;14.104;2023-07-30T01:43:11;5.93;;;5.40;;
3121;SDS011;1571;52.524;14.104;2023-07-30T01:45:39;7.20;;;5.50;;
3121;SDS011;1571;52.524;14.104;2023-07-30T01:48:08;5.23;;;4.73;;
3121;SDS011;1571;52.524;14.104;2023-07-30T01:50:36;13.20;;;5.20;;
3121;SDS011;1571;52.524;14.104;2023-07-30T01:53:04;6.20;;;5.60;;
3121;SDS011;1571;52.524;14.104;2023-07-30T01:55:34;6.80;;;6.30;;
3121;SDS011;1571;52.524;14.104;2023-07-30T01:58:02;7.20;;;6.23;;
3121;SDS011;1571;52.524;14.104;2023-07-30T02:00:31;6.33;;;5.63;;
3121;SDS011;1571;52.524;14.104;2023-07-30T02:03:08;6.70;;;5.73;;
3121;SDS011;1571;52.524;14.104;2023-07-30T02:05:36;6.43;;;5.27;;
3121;SDS011;1571;52.524;14.104;2023-07-30T02:08:05;5.93;;;5.30;;
3121;SDS011;1571;52.524;14.104;2023-07-30T02:10:35;9.70;;;6.17;;
3121;SDS011;1571;52.524;14.104;2023-07-30T02:13:03;5.97;;;5.47;;
3121;SDS011;1571;52.524;14.104;2023-07-30T02:15:31;6.30;;;5.60;;
3121;SDS011;1571;52.524;14.104;2023-07-30T02:18:00;6.20;;;5.70;;
3121;SDS011;1571;52.524;14.104;2023-07-30T02:20:28;6.30;;;5.70;;
3121;SDS011;1571;52.524;14.104;2023-07-30T02:22:56;6.80;;;6.10;;
3121;SDS011;1571;52.524;14.104;2023-07-30T02:25:25;6.67;;;6.07;;
3121;SDS011;1571;52.524;14.104;2023-07-30T02:27:54;6.30;;;5.70;;
3121;SDS011;1571;52.524;14.104;2023-07-30T02:30:23;7.07;;;6.47;;
3121;SDS011;1571;52.524;14.104;2023-07-30T02:32:51;36.50;;;7.73;;
3121;SDS011;1571;52.524;14.104;2023-07-30T02:35:19;6.93;;;6.23;;
3121;SDS011;1571;52.524;14.104;2023-07-30T02:37:48;7.30;;;5.47;;
3121;SDS011;1571;52.524;14.104;2023-07-30T02:40:16;11.37;;;6.50;;
3121;SDS011;1571;52.524;14.104;2023-07-30T02:42:45;13.43;;;6.47;;
3121;SDS011;1571;52.524;14.104;2023-07-30T02:45:14;7.47;;;5.80;;
3121;SDS011;1571;52.524;14.104;2023-07-30T02:47:43;6.80;;;6.20;;
3121;SDS011;1571;52.524;14.104;2023-07-30T02:50:11;5.80;;;5.20;;
3121;SDS011;1571;52.524;14.104;2023-07-30T02:52:40;4.07;;;3.70;;
3121;SDS011;1571;52.524;14.104;2023-07-30T02:55:08;6.03;;;5.00;;
3121;SDS011;1571;52.524;14.104;2023-07-30T02:57:36;8.23;;;4.90;;
3121;SDS011;1571;52.524;14.104;2023-07-30T03:00:05;5.97;;;5.27;;
3121;SDS011;1571;52.524;14.104;2023-07-30T03:02:37;5.90;;;5.40;;
3121;SDS011;1571;52.524;14.104;2023-07-30T03:05:05;6.60;;;4.83;;
3121;SDS011;1571;52.524;14.104;2023-07-30T03:07:34;7.40;;;5.60;;
3121;SDS011;1571;52.524;14.104;2023-07-30T03:10:03;6.57;;;5.90;;
3121;SDS011;1571;52.524;14.104;2023-07-30T03:12:31;6.50;;;5.40;;
3121;SDS011;1571;52.524;14.104;2023-07-30T03:14:59;7.50;;;6.33;;
3121;SDS011;1571;52.524;14.104;2023-07-30T03:17:29;5.57;;;4.87;;
3121;SDS011;1571;52.524;14.104;2023-07-30T03:19:58;12.77;;;5.17;;
3121;SDS011;1571;52.524;14.104;2023-07-30T03:22:27;5.63;;;5.17;;
3121;SDS011;1571;52.524;14.104;2023-07-30T03:24:55;5.53;;;4.90;;
3121;SDS011;1571;52.524;14.104;2023-07-30T03:27:23;4.47;;;4.13;;
3121;SDS011;1571;52.524;14.104;2023-07-30T03:29:52;4.80;;;4.50;;
3121;SDS011;1571;52.524;14.104;2023-07-30T03:32:20;5.07;;;4.67;;
3121;SDS011;1571;52.524;14.104;2023-07-30T03:34:48;3.97;;;3.67;;
3121;SDS011;1571;52.524;14.104;2023-07-30T03:37:18;5.40;;;5.00;;
3121;SDS011;1571;52.524;14.104;2023-07-30T03:39:46;8.60;;;4.30;;
3121;SDS011;1571;52.524;14.104;2023-07-30T03:42:15;6.37;;;4.60;;
3121;SDS011;1571;52.524;14.104;2023-07-30T03:44:43;4.90;;;4.50;;
3121;SDS011;1571;52.524;14.104;2023-07-30T03:47:12;10.73;;;5.70;;
3121;SDS011;1571;52.524;14.104;2023-07-30T03:49:40;5.30;;;4.80;;
3121;SDS011;1571;52.524;14.104;2023-07-30T03:52:08;5.83;;;5.33;;
3121;SDS011;1571;52.524;14.104;2023-07-30T03:54:38;5.77;;;5.10;;
3121;SDS011;1571;52.524;14.104;2023-07-30T03:57:06;4.37;;;4.00;;
3121;SDS011;1571;52.524;14.104;2023-07-30T03:59:35;4.60;;;4.30;;
3121;SDS011;1571;52.524;14.104;2023-07-30T04:02:03;5.90;;;4.50;;
3121;SDS011;1571;52.524;14.104;2023-07-30T04:04:32;5.97;;;4.93;;
3121;SDS011;1571;52.524;14.104;2023-07-30T04:07:00;4.30;;;4.00;;
3121;SDS011;1571;52.524;14.104;2023-07-30T04:09:28;5.67;;;4.90;;
3121;SDS011;1571;52.524;14.104;2023-07-30T04:12:00;6.07;;;5.37;;
3121;SDS011;1571;52.524;14.104;2023-07-30T04:14:28;7.20;;;5.77;;
3121;SDS011;1571;52.524;14.104;2023-07-30T04:16:57;6.00;;;5.50;;
3121;SDS011;1571;52.524;14.104;2023-07-30T04:19:25;6.80;;;6.30;;
3121;SDS011;1571;52.524;14.104;2023-07-30T04:21:53;7.20;;;6.33;;
3121;SDS011;1571;52.524;14.104;2023-07-30T04:24:22;6.77;;;6.07;;
3121;SDS011;1571;52.524;14.104;2023-07-30T04:26:50;5.70;;;5.07;;
3121;SDS011;1571;52.524;14.104;2023-07-30T04:29:22;7.13;;;6.53;;
3121;SDS011;1571;52.524;14.104;2023-07-30T04:31:50;6.50;;;5.90;;
3121;SDS011;1571;52.524;14.104;2023-07-30T04:34:19;6.50;;;5.80;;
3121;SDS011;1571;52.524;14.104;2023-07-30T04:36:47;6.57;;;6.00;;
3121;SDS011;1571;52.524;14.104;2023-07-30T04:39:16;7.53;;;6.67;;
3121;SDS011;1571;52.524;14.104;2023-07-30T04:41:45;8.37;;;7.67;;
3121;SDS011;1571;52.524;14.104;2023-07-30T04:44:14;8.73;;;6.60;;
3121;SDS011;1571;52.524;14.104;2023-07-30T04:46:43;7.70;;;7.00;;
3121;SDS011;1571;52.524;14.104;2023-07-30T04:49:12;8.23;;;7.53;;
3121;SDS011;1571;52.524;14.104;2023-07-30T04:51:41;10.30;;;7.77;;
3121;SDS011;1571;52.524;14.104;2023-07-30T04:54:09;8.23;;;7.47;;
3121;SDS011;1571;52.524;14.104;2023-07-30T04:56:38;8.30;;;7.60;;
3121;SDS011;1571;52.524;14.104;2023-07-30T04:59:07;7.73;;;7.07;;
3121;SDS011;1571;52.524;14.104;2023-07-30T05:01:35;8.20;;;7.43;;
3121;SDS011;1571;52.524;14.104;2023-07-30T05:04:05;8.73;;;7.80;;
3121;SDS011;1571;52.524;14.104;2023-07-30T05:06:33;7.43;;;6.83;;
3121;SDS011;1571;52.524;14.104;2023-07-30T05:09:02;9.20;;;8.37;;
3121;SDS011;1571;52.524;14.104;2023-07-30T05:11:30;12.93;;;7.83;;
3121;SDS011;1571;52.524;14.104;2023-07-30T05:13:58;9.40;;;8.27;;
3121;SDS011;1571;52.524;14.104;2023-07-30T05:16:27;9.80;;;8.93;;
3121;SDS011;1571;52.524;14.104;2023-07-30T05:18:55;9.17;;;7.50;;
3121;SDS011;1571;52.524;14.104;2023-07-30T05:21:25;8.10;;;7.50;;
3121;SDS011;1571;52.524;14.104;2023-07-30T05:23:53;11.73;;;7.70;;
3121;SDS011;1571;52.524;14.104;2023-07-30T05:26:22;8.33;;;7.40;;
3121;SDS011;1571;52.524;14.104;2023-07-30T05:28:50;11.73;;;8.20;;
3121;SDS011;1571;52.524;14.104;2023-07-30T05:31:18;8.37;;;7.50;;
3121;SDS011;1571;52.524;14.104;2023-07-30T05:33:46;8.70;;;7.87;;
3121;SDS011;1571;52.524;14.104;2023-07-30T05:36:15;8.13;;;7.47;;
3121;SDS011;1571;52.524;14.104;2023-07-30T05:38:44;9.30;;;8.50;;
3121;SDS011;1571;52.524;14.104;2023-07-30T05:41:13;8.13;;;7.53;;
3121;SDS011;1571;52.524;14.104;2023-07-30T05:43:41;7.83;;;7.23;;
3121;SDS011;1571;52.524;14.104;2023-07-30T05:46:09;6.43;;;5.93;;
3121;SDS011;1571;52.524;14.104;2023-07-30T05:48:38;7.30;;;6.70;;
3121;SDS011;1571;52.524;14.104;2023-07-30T05:51:06;7.07;;;6.37;;
3121;SDS011;1571;52.524;14.104;2023-07-30T05:53:34;6.60;;;6.10;;
3121;SDS011;1571;52.524;14.104;2023-07-30T05:56:04;8.07;;;7.20;;
3121;SDS011;1571;52.524;14.104;2023-07-30T05:58:32;7.20;;;6.60;;
3121;SDS011;1571;52.524;14.104;2023-07-30T06:01:01;7.70;;;7.20;;
3121;SDS011;1571;52.524;14.104;2023-07-30T06:03:30;7.17;;;5.87;;
3121;SDS011;1571;52.524;14.104;2023-07-30T06:06:00;6.60;;;6.10;;
3121;SDS011;1571;52.524;14.104;2023-07-30T06:08:29;6.53;;;5.93;;
3121;SDS011;1571;52.524;14.104;2023-07-30T06:10:59;8.17;;;6.90;;
3121;SDS011;1571;52.524;14.104;2023-07-30T06:13:30;6.30;;;5.80;;
3121;SDS011;1571;52.524;14.104;2023-07-30T06:15:58;7.13;;;6.63;;
3121;SDS011;1571;52.524;14.104;2023-07-30T06:18:26;6.57;;;6.03;;
3121;SDS011;1571;52.524;14.104;2023-07-30T06:20:55;5.77;;;5.37;;
3121;SDS011;1571;52.524;14.104;2023-07-30T06:23:23;6.17;;;5.77;;
3121;SDS011;1571;52.524;14.104;2023-07-30T06:25:51;7.30;;;6.57;;
3121;SDS011;1571;52.524;14.104;2023-07-30T06:28:19;6.27;;;5.67;;
3121;SDS011;1571;52.524;14.104;2023-07-30T06:30:49;6.40;;;5.27;;
3121;SDS011;1571;52.524;14.104;2023-07-30T06:33:17;5.33;;;4.93;;
3121;SDS011;1571;52.524;14.104;2023-07-30T06:35:46;5.20;;;4.90;;
3121;SDS011;1571;52.524;14.104;2023-07-30T06:38:14;5.00;;;4.60;;
3121;SDS011;1571;52.524;14.104;2023-07-30T06:40:43;9.93;;;5.57;;
3121;SDS011;1571;52.524;14.104;2023-07-30T06:43:11;4.23;;;4.00;;
3121;SDS011;1571;52.524;14.104;2023-07-30T06:45:39;4.50;;;4.20;;
3121;SDS011;1571;52.524;14.104;2023-07-30T06:48:09;4.87;;;4.63;;
3121;SDS011;1571;52.524;14.104;2023-07-30T06:50:37;5.90;;;4.23;;
3121;SDS011;1571;52.524;14.104;2023-07-30T06:53:05;8.97;;;4.30;;
3121;SDS011;1571;52.524;14.104;2023-07-30T06:55:33;4.60;;;4.20;;
3121;SDS011;1571;52.524;14.104;2023-07-30T06:58:02;4.80;;;4.30;;
3121;SDS011;1571;52.524;14.104;2023-07-30T07:00:30;4.00;;;3.67;;
3121;SDS011;1571;52.524;14.104;2023-07-30T07:02:59;9.90;;;4.10;;
3121;SDS011;1571;52.524;14.104;2023-07-30T07:05:29;4.83;;;3.93;;
3121;SDS011;1571;52.524;14.104;2023-07-30T07:07:57;3.73;;;3.43;;
3121;SDS011;1571;52.524;14.104;2023-07-30T07:10:25;3.93;;;3.63;;
3121;SDS011;1571;52.524;14.104;2023-07-30T07:12:54;4.40;;;3.40;;
3121;SDS011;1571;52.524;14.104;2023-07-30T07:15:22;3.40;;;3.20;;
3121;SDS011;1571;52.524;14.104;2023-07-30T07:17:50;5.73;;;3.23;;
3121;SDS011;1571;52.524;14.104;2023-07-30T07:20:18;2.40;;;2.30;;
3121;SDS011;1571;52.524;14.104;2023-07-30T07:22:48;6.03;;;3.30;;
3121;SDS011;1571;52.524;14.104;2023-07-30T07:25:16;2.63;;;2.50;;
3121;SDS011;1571;52.524;14.104;2023-07-30T07:27:46;2.77;;;2.67;;
3121;SDS011;1571;52.524;14.104;2023-07-30T07:30:14;2.13;;;2.03;;
3121;SDS011;1571;52.524;14.104;2023-07-30T07:32:42;2.73;;;2.53;;
3121;SDS011;1571;52.524;14.104;2023-07-30T07:35:11;3.10;;;2.90;;
3121;SDS011;1571;52.524;14.104;2023-07-30T07:37:39;5.60;;;3.13;;
3121;SDS011;1571;52.524;14.104;2023-07-30T07:40:09;2.33;;;2.23;;
3121;SDS011;1571;52.524;14.104;2023-07-30T07:42:38;2.30;;;2.17;;
3121;SDS011;1571;52.524;14.104;2023-07-30T07:45:07;2.23;;;2.00;;
3121;SDS011;1571;52.524;14.104;2023-07-30T07:47:35;5.93;;;2.70;;
3121;SDS011;1571;52.524;14.104;2023-07-30T07:50:04;2.10;;;1.87;;
3121;SDS011;1571;52.524;14.104;2023-07-30T07:52:33;2.80;;;2.60;;
3121;SDS011;1571;52.524;14.104;2023-07-30T07:55:01;2.40;;;2.30;;
3121;SDS011;1571;52.524;14.104;2023-07-30T07:57:31;8.17;;;1.97;;
3121;SDS011;1571;52.524;14.104;2023-07-30T08:00:00;2.00;;;1.80;;
3121;SDS011;1571;52.524;14.104;2023-07-30T08:02:37;2.03;;;1.90;;
3121;SDS011;1571;52.524;14.104;2023-07-30T08:05:06;2.07;;;1.97;;
3121;SDS011;1571;52.524;14.104;2023-07-30T08:07:35;2.40;;;1.60;;
3121;SDS011;1571;52.524;14.104;2023-07-30T08:10:04;1.80;;;1.70;;
3121;SDS011;1571;52.524;14.104;2023-07-30T08:12:34;1.60;;;1.50;;
3121;SDS011;1571;52.524;14.104;2023-07-30T08:15:03;2.03;;;1.70;;
3121;SDS011;1571;52.524;14.104;2023-07-30T08:17:31;4.83;;;2.33;;
3121;SDS011;1571;52.524;14.104;2023-07-30T08:20:00;3.53;;;1.70;;
3121;SDS011;1571;52.524;14.104;2023-07-30T08:22:28;1.63;;;1.53;;
3121;SDS011;1571;52.524;14.104;2023-07-30T08:24:56;1.80;;;1.70;;
3121;SDS011;1571;52.524;14.104;2023-07-30T08:27:24;1.97;;;1.40;;
3121;SDS011;1571;52.524;14.104;2023-07-30T08:29:54;1.87;;;1.40;;
3121;SDS011;1571;52.524;14.104;2023-07-30T08:32:22;1.30;;;1.20;;
3121;SDS011;1571;52.524;14.104;2023-07-30T08:34:50;2.60;;;1.50;;
3121;SDS011;1571;52.524;14.104;2023-07-30T08:37:19;1.33;;;1.23;;
3121;SDS011;1571;52.524;14.104;2023-07-30T08:39:47;1.30;;;1.17;;
3121;SDS011;1571;52.524;14.104;2023-07-30T08:42:16;1.47;;;1.37;;
3121;SDS011;1571;52.524;14.104;2023-07-30T08:44:44;1.50;;;1.40;;
3121;SDS011;1571;52.524;14.104;2023-07-30T08:47:14;1.80;;;1.70;;
3121;SDS011;1571;52.524;14.104;2023-07-30T08:49:42;1.40;;;1.30;;
3121;SDS011;1571;52.524;14.104;2023-07-30T08:52:11;1.80;;;1.70;;
3121;SDS011;1571;52.524;14.104;2023-07-30T08:54:39;1.60;;;1.50;;
3121;SDS011;1571;52.524;14.104;2023-07-30T08:57:10;2.20;;;1.57;;
3121;SDS011;1571;52.524;14.104;2023-07-30T08:59:42;2.30;;;1.73;;
3121;SDS011;1571;52.524;14.104;2023-07-30T09:02:18;1.80;;;1.70;;
3121;SDS011;1571;52.524;14.104;2023-07-30T09:04:52;2.73;;;1.30;;
3121;SDS011;1571;52.524;14.104;2023-07-30T09:07:24;1.83;;;1.60;;
3121;SDS011;1571;52.524;14.104;2023-07-30T09:09:52;1.50;;;1.40;;
3121;SDS011;1571;52.524;14.104;2023-07-30T09:12:25;1.47;;;1.37;;
3121;SDS011;1571;52.524;14.104;2023-07-30T09:14:54;2.23;;;1.60;;
3121;SDS011;1571;52.524;14.104;2023-07-30T09:17:24;1.83;;;1.73;;
3121;SDS011;1571;52.524;14.104;2023-07-30T09:19:52;1.80;;;1.70;;
3121;SDS011;1571;52.524;14.104;2023-07-30T09:22:24;2.20;;;2.10;;
3121;SDS011;1571;52.524;14.104;2023-07-30T09:24:54;1.40;;;1.40;;
3121;SDS011;1571;52.524;14.104;2023-07-30T09:27:23;1.60;;;1.50;;
3121;SDS011;1571;52.524;14.104;2023-07-30T09:29:53;2.70;;;1.77;;
3121;SDS011;1571;52.524;14.104;2023-07-30T09:32:26;1.33;;;1.30;;
3121;SDS011;1571;52.524;14.104;2023-07-30T09:34:55;1.60;;;1.50;;
3121;SDS011;1571;52.524;14.104;2023-07-30T09:37:24;1.50;;;1.40;;
3121;SDS011;1571;52.524;14.104;2023-07-30T09:39:53;2.57;;;1.73;;
3121;SDS011;1571;52.524;14.104;2023-07-30T09:42:22;2.53;;;1.83;;
3121;SDS011;1571;52.524;14.104;2023-07-30T09:44:54;1.70;;;1.60;;
3121;SDS011;1571;52.524;14.104;2023-07-30T09:47:28;2.30;;;1.50;;
3121;SDS011;1571;52.524;14.104;2023-07-30T09:49:58;4.97;;;1.67;;
3121;SDS011;1571;52.524;14.104;2023-07-30T09:52:26;3.63;;;1.60;;
3121;SDS011;1571;52.524;14.104;2023-07-30T09:54:55;2.20;;;2.00;;
3121;SDS011;1571;52.524;14.104;2023-07-30T09:57:25;1.70;;;1.60;;
3121;SDS011;1571;52.524;14.104;2023-07-30T09:59:53;2.17;;;1.87;;
3121;SDS011;1571;52.524;14.104;2023-07-30T10:02:23;1.77;;;1.67;;
3121;SDS011;1571;52.524;14.104;2023-07-30T10:04:54;1.70;;;1.60;;
3121;SDS011;1571;52.524;14.104;2023-07-30T10:07:25;2.27;;;2.17;;
3121;SDS011;1571;52.524;14.104;2023-07-30T10:09:57;2.17;;;1.97;;
3121;SDS011;1571;52.524;14.104;2023-07-30T10:12:29;2.83;;;2.37;;
3121;SDS011;1571;52.524;14.104;2023-07-30T10:15:01;3.27;;;1.80;;
3121;SDS011;1571;52.524;14.104;2023-07-30T10:17:31;2.63;;;1.87;;
3121;SDS011;1571;52.524;14.104;2023-07-30T10:22:52;2.47;;;2.30;;
3121;SDS011;1571;52.524;14.104;2023-07-30T10:25:22;2.13;;;1.97;;
3121;SDS011;1571;52.524;14.104;2023-07-30T10:27:54;1.80;;;1.70;;
3121;SDS011;1571;52.524;14.104;2023-07-30T10:30:27;1.77;;;1.67;;
3121;SDS011;1571;52.524;14.104;2023-07-30T10:33:00;2.43;;;2.23;;
3121;SDS011;1571;52.524;14.104;2023-07-30T10:35:39;1.73;;;1.40;;
3121;SDS011;1571;52.524;14.104;2023-07-30T10:38:12;2.13;;;1.80;;
3121;SDS011;1571;52.524;14.104;2023-07-30T10:40:41;1.97;;;1.87;;
3121;SDS011;1571;52.524;14.104;2023-07-30T10:43:14;1.87;;;1.57;;
3121;SDS011;1571;52.524;14.104;2023-07-30T10:45:49;1.70;;;1.60;;
3121;SDS011;1571;52.524;14.104;2023-07-30T10:48:18;1.90;;;1.50;;
3121;SDS011;1571;52.524;14.104;2023-07-30T10:50:47;3.80;;;2.00;;
3121;SDS011;1571;52.524;14.104;2023-07-30T10:53:17;1.53;;;1.40;;
3121;SDS011;1571;52.524;14.104;2023-07-30T10:55:46;1.53;;;1.43;;
3121;SDS011;1571;52.524;14.104;2023-07-30T10:58:14;1.73;;;1.63;;
3121;SDS011;1571;52.524;14.104;2023-07-30T11:00:43;1.53;;;1.43;;
3121;SDS011;1571;52.524;14.104;2023-07-30T11:03:11;3.10;;;1.60;;
3121;SDS011;1571;52.524;14.104;2023-07-30T11:05:40;1.70;;;1.60;;
3121;SDS011;1571;52.524;14.104;2023-07-30T11:08:10;5.73;;;1.30;;
3121;SDS011;1571;52.524;14.104;2023-07-30T11:10:42;7.17;;;2.60;;
3121;SDS011;1571;52.524;14.104;2023-07-30T11:13:11;1.67;;;1.50;;
3121;SDS011;1571;52.524;14.104;2023-07-30T11:15:40;2.07;;;1.83;;
3121;SDS011;1571;52.524;14.104;2023-07-30T11:18:10;2.10;;;1.87;;
3121;SDS011;1571;52.524;14.104;2023-07-30T11:20:39;7.67;;;6.97;;
3121;SDS011;1571;52.524;14.104;2023-07-30T11:23:18;2.97;;;2.87;;
3121;SDS011;1571;52.524;14.104;2023-07-30T11:25:48;2.60;;;2.40;;
3121;SDS011;1571;52.524;14.104;2023-07-30T11:28:29;1.47;;;1.27;;
3121;SDS011;1571;52.524;14.104;2023-07-30T11:31:02;2.50;;;1.27;;
3121;SDS011;1571;52.524;14.104;2023-07-30T11:33:32;2.00;;;1.80;;
3121;SDS011;1571;52.524;14.104;2023-07-30T11:36:02;1.60;;;1.50;;
3121;SDS011;1571;52.524;14.104;2023-07-30T11:38:32;2.80;;;2.37;;
3121;SDS011;1571;52.524;14.104;2023-07-30T11:41:02;11.63;;;10.43;;
3121;SDS011;1571;52.524;14.104;2023-07-30T11:43:32;1.90;;;1.40;;
3121;SDS011;1571;52.524;14.104;2023-07-30T11:46:06;1.20;;;1.10;;
3121;SDS011;1571;52.524;14.104;2023-07-30T11:48:35;1.47;;;1.37;;
3121;SDS011;1571;52.524;14.104;2023-07-30T11:51:04;2.00;;;1.10;;
3121;SDS011;1571;52.524;14.104;2023-07-30T11:53:47;1.17;;;0.90;;
3121;SDS011;1571;52.524;14.104;2023-07-30T11:56:21;1.93;;;1.83;;
3121;SDS011;1571;52.524;14.104;2023-07-30T11:58:52;1.83;;;1.20;;
3121;SDS011;1571;52.524;14.104;2023-07-30T12:01:23;0.87;;;0.80;;
3121;SDS011;1571;52.524;14.104;2023-07-30T12:03:56;1.50;;;1.33;;
3121;SDS011;1571;52.524;14.104;2023-07-30T12:06:37;3.13;;;1.80;;
3121;SDS011;1571;52.524;14.104;2023-07-30T12:09:12;2.20;;;1.10;;
3121;SDS011;1571;52.524;14.104;2023-07-30T12:11:45;1.77;;;1.67;;
3121;SDS011;1571;52.524;14.104;2023-07-30T12:14:15;0.90;;;0.90;;
3121;SDS011;1571;52.524;14.104;2023-07-30T12:16:43;2.20;;;1.20;;
3121;SDS011;1571;52.524;14.104;2023-07-30T12:19:12;1.30;;;1.10;;
3121;SDS011;1571;52.524;14.104;2023-07-30T12:21:41;1.80;;;1.70;;
3121;SDS011;1571;52.524;14.104;2023-07-30T12:24:12;1.83;;;1.50;;
3121;SDS011;1571;52.524;14.104;2023-07-30T12:26:41;1.50;;;1.40;;
3121;SDS011;1571;52.524;14.104;2023-07-30T12:29:09;2.20;;;1.43;;
3121;SDS011;1571;52.524;14.104;2023-07-30T12:31:40;1.97;;;1.80;;
3121;SDS011;1571;52.524;14.104;2023-07-30T12:34:09;2.30;;;1.90;;
3121;SDS011;1571;52.524;14.104;2023-07-30T12:36:37;1.37;;;1.10;;
3121;SDS011;1571;52.524;14.104;2023-07-30T12:39:06;3.20;;;1.10;;
3121;SDS011;1571;52.524;14.104;2023-07-30T12:41:36;4.43;;;1.70;;
3121;SDS011;1571;52.524;14.104;2023-07-30T12:44:05;1.77;;;1.67;;
3121;SDS011;1571;52.524;14.104;2023-07-30T12:46:33;1.50;;;1.40;;
3121;SDS011;1571;52.524;14.104;2023-07-30T12:49:02;6.60;;;1.83;;
3121;SDS011;1571;52.524;14.104;2023-07-30T12:51:32;1.93;;;1.47;;
3121;SDS011;1571;52.524;14.104;2023-07-30T12:54:01;3.93;;;1.70;;
3121;SDS011;1571;52.524;14.104;2023-07-30T12:56:30;2.73;;;1.20;;
3121;SDS011;1571;52.524;14.104;2023-07-30T12:59:01;2.97;;;1.20;;
3121;SDS011;1571;52.524;14.104;2023-07-30T13:01:30;1.10;;;1.10;;
3121;SDS011;1571;52.524;14.104;2023-07-30T13:03:59;1.63;;;1.27;;
3121;SDS011;1571;52.524;14.104;2023-07-30T13:06:28;4.03;;;2.00;;
3121;SDS011;1571;52.524;14.104;2023-07-30T13:08:56;1.63;;;1.23;;
3121;SDS011;1571;52.524;14.104;2023-07-30T13:11:25;1.93;;;0.93;;
3121;SDS011;1571;52.524;14.104;2023-07-30T13:13:53;1.60;;;1.10;;
3121;SDS011;1571;52.524;14.104;2023-07-30T13:16:23;1.23;;;0.80;;
3121;SDS011;1571;52.524;14.104;2023-07-30T13:18:51;1.10;;;1.00;;
3121;SDS011;1571;52.524;14.104;2023-07-30T13:21:23;2.63;;;1.67;;
3121;SDS011;1571;52.524;14.104;2023-07-30T13:23:52;2.53;;;1.37;;
3121;SDS011;1571;52.524;14.104;2023-07-30T13:26:20;1.57;;;1.33;;
3121;SDS011;1571;52.524;14.104;2023-07-30T13:28:49;2.13;;;1.20;;
3121;SDS011;1571;52.524;14.104;2023-07-30T13:31:17;1.57;;;1.33;;
3121;SDS011;1571;52.524;14.104;2023-07-30T13:33:47;3.77;;;1.27;;
3121;SDS011;1571;52.524;14.104;2023-07-30T13:36:15;5.03;;;1.43;;
3121;SDS011;1571;52.524;14.104;2023-07-30T13:38:44;1.27;;;0.90;;
3121;SDS011;1571;52.524;14.104;2023-07-30T13:41:12;1.93;;;1.00;;
3121;SDS011;1571;52.524;14.104;2023-07-30T13:43:40;2.90;;;1.00;;
3121;SDS011;1571;52.524;14.104;2023-07-30T13:46:09;6.77;;;1.73;;
3121;SDS011;1571;52.524;14.104;2023-07-30T13:48:37;1.53;;;0.80;;
3121;SDS011;1571;52.524;14.104;2023-07-30T13:51:07;3.13;;;1.40;;
3121;SDS011;1571;52.524;14.104;2023-07-30T13:53:35;2.50;;;1.00;;
3121;SDS011;1571;52.524;14.104;2023-07-30T13:56:07;3.43;;;1.70;;
3121;SDS011;1571;52.524;14.104;2023-07-30T13:58:36;1.90;;;1.03;;
3121;SDS011;1571;52.524;14.104;2023-07-30T14:01:06;3.57;;;2.13;;
3121;SDS011;1571;52.524;14.104;2023-07-30T14:03:36;2.03;;;1.70;;
3121;SDS011;1571;52.524;14.104;2023-07-30T14:06:04;2.10;;;1.43;;
3121;SDS011;1571;52.524;14.104;2023-07-30T14:08:34;2.43;;;1.80;;
3121;SDS011;1571;52.524;14.104;2023-07-30T14:11:02;3.50;;;0.80;;
3121;SDS011;1571;52.524;14.104;2023-07-30T14:13:31;3.23;;;1.27;;
3121;SDS011;1571;52.524;14.104;2023-07-30T14:15:59;5.10;;;1.33;;
3121;SDS011;1571;52.524;14.104;2023-07-30T14:18:28;2.30;;;1.47;;
3121;SDS011;1571;52.524;14.104;2023-07-30T14:20:56;4.07;;;1.67;;
3121;SDS011;1571;52.524;14.104;2023-07-30T14:23:24;3.03;;;1.67;;
3121;SDS011;1571;52.524;14.104;2023-07-30T14:25:54;1.50;;;1.10;;
3121;SDS011;1571;52.524;14.104;2023-07-30T14:28:22;0.90;;;0.90;;
3121;SDS011;1571;52.524;14.104;2023-07-30T14:30:51;2.17;;;1.20;;
3121;SDS011;1571;52.524;14.104;2023-07-30T14:33:19;7.30;;;1.37;;
3121;SDS011;1571;52.524;14.104;2023-07-30T14:35:48;2.57;;;1.27;;
3121;SDS011;1571;52.524;14.104;2023-07-30T14:38:16;1.40;;;1.10;;
3121;SDS011;1571;52.524;14.104;2023-07-30T14:40:44;2.30;;;1.27;;
3121;SDS011;1571;52.524;14.104;2023-07-30T14:43:14;1.87;;;1.13;;
3121;SDS011;1571;52.524;14.104;2023-07-30T14:45:42;1.93;;;1.60;;
3121;SDS011;1571;52.524;14.104;2023-07-30T14:48:10;2.03;;;1.10;;
3121;SDS011;1571;52.524;14.104;2023-07-30T14:50:39;2.07;;;1.37;;
3121;SDS011;1571;52.524;14.104;2023-07-30T14:53:07;1.00;;;0.90;;
3121;SDS011;1571;52.524;14.104;2023-07-30T14:55:35;4.23;;;1.93;;
3121;SDS011;1571;52.524;14.104;2023-07-30T14:58:04;2.33;;;1.40;;
3121;SDS011;1571;52.524;14.104;2023-07-30T15:00:34;3.57;;;1.20;;
3121;SDS011;1571;52.524;14.104;2023-07-30T15:03:02;2.53;;;1.80;;
3121;SDS011;1571;52.524;14.104;2023-07-30T15:05:31;2.00;;;1.37;;
3121;SDS011;1571;52.524;14.104;2023-07-30T15:08:00;1.33;;;1.17;;
3121;SDS011;1571;52.524;14.104;2023-07-30T15:10:29;1.53;;;1.43;;
3121;SDS011;1571;52.524;14.104;2023-07-30T15:12:57;1.60;;;1.50;;
3121;SDS011;1571;52.524;14.104;2023-07-30T15:15:26;1.87;;;1.40;;